sensor_id;sensor_type;location;lat;lon;timestamp;P1;durP1;ratioP1;P2;durP2;ratioP2
5519;SDS011;2782;52.362;10.012;2023-04-29T00:00:05;24.27;;;10.82;;
5519;SDS011;2782;52.362;10.012;2023-04-29T00:01:09;20.20;;;10.05;;
5519;SDS011;2782;52.362;10.012;2023-04-29T00:02:10;25.00;;;11.03;;
5519;SDS011;2782;52.362;10.012;2023-04-29T00:03:13;22.58;;;11.02;;
5519;SDS011;2782;52.362;10.012;2023-04-29T00:04:13;24.90;;;10.90;;
5519;SDS011;2782;52.362;10.012;2023-04-29T00:05:15;25.08;;;10.55;;
5519;SDS011;2782;52.362;10.012;2023-04-29T00:06:15;22.63;;;11.00;;
5519;SDS011;2782;52.362;10.012;2023-04-29T00:07:18;24.08;;;11.18;;
5519;SDS011;2782;52.362;10.012;2023-04-29T00:08:19;20.43;;;10.50;;
5519;SDS011;2782;52.362;10.012;2023-04-29T00:09:20;20.65;;;10.57;;
5519;SDS011;2782;52.362;10.012;2023-04-29T00:10:21;23.80;;;11.30;;
5519;SDS011;2782;52.362;10.012;2023-04-29T00:11:23;21.15;;;10.68;;
5519;SDS011;2782;52.362;10.012;2023-04-29T00:12:23;21.23;;;10.07;;
5519;SDS011;2782;52.362;10.012;2023-04-29T00:13:25;25.50;;;10.95;;
5519;SDS011;2782;52.362;10.012;2023-04-29T00:14:26;22.37;;;9.73;;
5519;SDS011;2782;52.362;10.012;2023-04-29T00:15:29;25.42;;;9.85;;
5519;SDS011;2782;52.362;10.012;2023-04-29T00:16:29;21.95;;;10.70;;
5519;SDS011;2782;52.362;10.012;2023-04-29T00:17:31;23.35;;;11.60;;
5519;SDS011;2782;52.362;10.012;2023-04-29T00:18:31;22.13;;;10.83;;
5519;SDS011;2782;52.362;10.012;2023-04-29T00:19:33;23.17;;;10.10;;
5519;SDS011;2782;52.362;10.012;2023-04-29T00:20:34;20.90;;;10.30;;
5519;SDS011;2782;52.362;10.012;2023-04-29T00:21:37;20.35;;;9.77;;
5519;SDS011;2782;52.362;10.012;2023-04-29T00:22:37;27.10;;;10.53;;
5519;SDS011;2782;52.362;10.012;2023-04-29T00:23:39;20.00;;;10.10;;
5519;SDS011;2782;52.362;10.012;2023-04-29T00:24:40;23.23;;;11.10;;
5519;SDS011;2782;52.362;10.012;2023-04-29T00:25:41;21.10;;;10.50;;
5519;SDS011;2782;52.362;10.012;2023-04-29T00:26:42;17.63;;;9.50;;
5519;SDS011;2782;52.362;10.012;2023-04-29T00:27:43;19.58;;;10.30;;
5519;SDS011;2782;52.362;10.012;2023-04-29T00:28:44;19.60;;;9.20;;
5519;SDS011;2782;52.362;10.012;2023-04-29T00:29:46;19.35;;;9.65;;
5519;SDS011;2782;52.362;10.012;2023-04-29T00:30:48;22.80;;;9.97;;
5519;SDS011;2782;52.362;10.012;2023-04-29T00:31:49;20.05;;;9.98;;
5519;SDS011;2782;52.362;10.012;2023-04-29T00:32:50;23.90;;;9.97;;
5519;SDS011;2782;52.362;10.012;2023-04-29T00:33:52;20.92;;;10.13;;
5519;SDS011;2782;52.362;10.012;2023-04-29T00:34:52;21.80;;;9.90;;
5519;SDS011;2782;52.362;10.012;2023-04-29T00:35:54;24.38;;;11.70;;
5519;SDS011;2782;52.362;10.012;2023-04-29T00:36:55;25.07;;;10.00;;
5519;SDS011;2782;52.362;10.012;2023-04-29T00:37:57;24.40;;;9.77;;
5519;SDS011;2782;52.362;10.012;2023-04-29T00:38:57;24.67;;;8.87;;
5519;SDS011;2782;52.362;10.012;2023-04-29T00:39:59;17.58;;;9.73;;
5519;SDS011;2782;52.362;10.012;2023-04-29T00:40:59;20.70;;;9.10;;
5519;SDS011;2782;52.362;10.012;2023-04-29T00:42:02;19.95;;;9.82;;
5519;SDS011;2782;52.362;10.012;2023-04-29T00:43:03;20.52;;;9.75;;
5519;SDS011;2782;52.362;10.012;2023-04-29T00:44:05;20.23;;;9.40;;
5519;SDS011;2782;52.362;10.012;2023-04-29T00:45:07;19.55;;;9.98;;
5519;SDS011;2782;52.362;10.012;2023-04-29T00:46:11;19.48;;;9.80;;
5519;SDS011;2782;52.362;10.012;2023-04-29T00:47:12;21.80;;;9.93;;
5519;SDS011;2782;52.362;10.012;2023-04-29T00:48:14;17.00;;;8.82;;
5519;SDS011;2782;52.362;10.012;2023-04-29T00:49:14;16.23;;;9.07;;
5519;SDS011;2782;52.362;10.012;2023-04-29T00:50:16;16.73;;;9.10;;
5519;SDS011;2782;52.362;10.012;2023-04-29T00:51:17;15.43;;;9.17;;
5519;SDS011;2782;52.362;10.012;2023-04-29T00:52:19;18.73;;;9.05;;
5519;SDS011;2782;52.362;10.012;2023-04-29T00:53:20;19.50;;;9.07;;
5519;SDS011;2782;52.362;10.012;2023-04-29T00:54:22;17.42;;;9.02;;
5519;SDS011;2782;52.362;10.012;2023-04-29T00:55:23;15.70;;;8.93;;
5519;SDS011;2782;52.362;10.012;2023-04-29T00:56:26;15.95;;;8.95;;
5519;SDS011;2782;52.362;10.012;2023-04-29T00:57:30;19.83;;;9.52;;
5519;SDS011;2782;52.362;10.012;2023-04-29T00:58:33;15.52;;;7.82;;
5519;SDS011;2782;52.362;10.012;2023-04-29T00:59:36;18.08;;;9.15;;
5519;SDS011;2782;52.362;10.012;2023-04-29T01:00:37;16.35;;;8.90;;
5519;SDS011;2782;52.362;10.012;2023-04-29T01:01:41;15.60;;;8.60;;
5519;SDS011;2782;52.362;10.012;2023-04-29T01:02:43;19.80;;;9.45;;
5519;SDS011;2782;52.362;10.012;2023-04-29T01:03:47;19.65;;;9.23;;
5519;SDS011;2782;52.362;10.012;2023-04-29T01:04:49;16.48;;;9.10;;
5519;SDS011;2782;52.362;10.012;2023-04-29T01:05:53;19.23;;;8.80;;
5519;SDS011;2782;52.362;10.012;2023-04-29T01:07:04;22.52;;;9.20;;
5519;SDS011;2782;52.362;10.012;2023-04-29T01:08:15;20.75;;;9.18;;
5519;SDS011;2782;52.362;10.012;2023-04-29T01:09:30;20.40;;;10.00;;
5519;SDS011;2782;52.362;10.012;2023-04-29T01:10:44;19.98;;;9.32;;
5519;SDS011;2782;52.362;10.012;2023-04-29T01:11:54;17.65;;;9.18;;
5519;SDS011;2782;52.362;10.012;2023-04-29T01:13:06;18.50;;;8.73;;
5519;SDS011;2782;52.362;10.012;2023-04-29T01:14:14;16.27;;;8.75;;
5519;SDS011;2782;52.362;10.012;2023-04-29T01:15:16;18.63;;;8.32;;
5519;SDS011;2782;52.362;10.012;2023-04-29T01:16:22;15.38;;;8.60;;
5519;SDS011;2782;52.362;10.012;2023-04-29T01:17:30;17.13;;;9.18;;
5519;SDS011;2782;52.362;10.012;2023-04-29T01:18:38;15.75;;;9.10;;
5519;SDS011;2782;52.362;10.012;2023-04-29T01:19:43;19.80;;;9.85;;
5519;SDS011;2782;52.362;10.012;2023-04-29T01:20:47;16.88;;;8.52;;
5519;SDS011;2782;52.362;10.012;2023-04-29T01:21:48;17.37;;;9.03;;
5519;SDS011;2782;52.362;10.012;2023-04-29T01:22:50;16.33;;;8.90;;
5519;SDS011;2782;52.362;10.012;2023-04-29T01:23:52;15.17;;;8.23;;
5519;SDS011;2782;52.362;10.012;2023-04-29T01:24:56;15.60;;;8.57;;
5519;SDS011;2782;52.362;10.012;2023-04-29T01:25:57;15.87;;;8.20;;
5519;SDS011;2782;52.362;10.012;2023-04-29T01:27:01;17.30;;;9.27;;
5519;SDS011;2782;52.362;10.012;2023-04-29T01:28:15;18.40;;;8.90;;
5519;SDS011;2782;52.362;10.012;2023-04-29T01:29:26;16.17;;;7.80;;
5519;SDS011;2782;52.362;10.012;2023-04-29T01:30:36;16.33;;;8.80;;
5519;SDS011;2782;52.362;10.012;2023-04-29T01:31:45;16.85;;;9.25;;
5519;SDS011;2782;52.362;10.012;2023-04-29T01:32:56;16.90;;;8.00;;
5519;SDS011;2782;52.362;10.012;2023-04-29T01:34:04;17.98;;;8.23;;
5519;SDS011;2782;52.362;10.012;2023-04-29T01:35:10;17.30;;;8.82;;
5519;SDS011;2782;52.362;10.012;2023-04-29T01:36:20;14.80;;;8.15;;
5519;SDS011;2782;52.362;10.012;2023-04-29T01:37:27;12.88;;;8.10;;
5519;SDS011;2782;52.362;10.012;2023-04-29T01:38:36;16.60;;;8.20;;
5519;SDS011;2782;52.362;10.012;2023-04-29T01:39:44;16.17;;;8.35;;
5519;SDS011;2782;52.362;10.012;2023-04-29T01:40:58;13.57;;;8.00;;
5519;SDS011;2782;52.362;10.012;2023-04-29T01:42:09;17.58;;;9.40;;
5519;SDS011;2782;52.362;10.012;2023-04-29T01:43:18;18.25;;;9.10;;
5519;SDS011;2782;52.362;10.012;2023-04-29T01:44:22;15.60;;;8.02;;
5519;SDS011;2782;52.362;10.012;2023-04-29T01:45:26;13.88;;;7.78;;
5519;SDS011;2782;52.362;10.012;2023-04-29T01:46:28;20.70;;;8.57;;
5519;SDS011;2782;52.362;10.012;2023-04-29T01:47:31;16.35;;;7.80;;
5519;SDS011;2782;52.362;10.012;2023-04-29T01:48:32;17.00;;;8.75;;
5519;SDS011;2782;52.362;10.012;2023-04-29T01:49:34;15.80;;;8.40;;
5519;SDS011;2782;52.362;10.012;2023-04-29T01:50:36;17.15;;;9.18;;
5519;SDS011;2782;52.362;10.012;2023-04-29T01:51:37;15.90;;;8.82;;
5519;SDS011;2782;52.362;10.012;2023-04-29T01:52:38;12.40;;;7.17;;
5519;SDS011;2782;52.362;10.012;2023-04-29T01:53:40;17.70;;;8.60;;
5519;SDS011;2782;52.362;10.012;2023-04-29T01:54:40;15.43;;;7.43;;
5519;SDS011;2782;52.362;10.012;2023-04-29T01:55:44;15.48;;;7.57;;
5519;SDS011;2782;52.362;10.012;2023-04-29T01:56:44;17.23;;;8.33;;
5519;SDS011;2782;52.362;10.012;2023-04-29T01:57:46;16.80;;;8.30;;
5519;SDS011;2782;52.362;10.012;2023-04-29T01:58:47;16.80;;;8.27;;
5519;SDS011;2782;52.362;10.012;2023-04-29T01:59:48;14.40;;;7.05;;
5519;SDS011;2782;52.362;10.012;2023-04-29T02:00:49;15.47;;;8.20;;
5519;SDS011;2782;52.362;10.012;2023-04-29T02:01:51;13.52;;;7.68;;
5519;SDS011;2782;52.362;10.012;2023-04-29T02:02:51;19.97;;;9.67;;
5519;SDS011;2782;52.362;10.012;2023-04-29T02:03:53;14.00;;;7.82;;
5519;SDS011;2782;52.362;10.012;2023-04-29T02:04:54;14.20;;;7.87;;
5519;SDS011;2782;52.362;10.012;2023-04-29T02:05:55;12.25;;;7.13;;
5519;SDS011;2782;52.362;10.012;2023-04-29T02:06:56;13.70;;;7.60;;
5519;SDS011;2782;52.362;10.012;2023-04-29T02:07:58;15.10;;;8.15;;
5519;SDS011;2782;52.362;10.012;2023-04-29T02:08:59;17.30;;;7.20;;
5519;SDS011;2782;52.362;10.012;2023-04-29T02:10:02;13.18;;;7.20;;
5519;SDS011;2782;52.362;10.012;2023-04-29T02:11:02;12.80;;;7.80;;
5519;SDS011;2782;52.362;10.012;2023-04-29T02:12:04;14.20;;;7.80;;
5519;SDS011;2782;52.362;10.012;2023-04-29T02:13:05;13.87;;;8.03;;
5519;SDS011;2782;52.362;10.012;2023-04-29T02:14:07;16.95;;;8.18;;
5519;SDS011;2782;52.362;10.012;2023-04-29T02:15:08;13.70;;;7.73;;
5519;SDS011;2782;52.362;10.012;2023-04-29T02:16:10;14.25;;;8.25;;
5519;SDS011;2782;52.362;10.012;2023-04-29T02:17:12;20.70;;;7.90;;
5519;SDS011;2782;52.362;10.012;2023-04-29T02:18:13;13.57;;;7.20;;
5519;SDS011;2782;52.362;10.012;2023-04-29T02:19:15;13.32;;;7.72;;
5519;SDS011;2782;52.362;10.012;2023-04-29T02:20:16;10.83;;;7.00;;
5519;SDS011;2782;52.362;10.012;2023-04-29T02:21:17;16.02;;;8.40;;
5519;SDS011;2782;52.362;10.012;2023-04-29T02:22:18;17.23;;;8.20;;
5519;SDS011;2782;52.362;10.012;2023-04-29T02:23:20;11.60;;;6.95;;
5519;SDS011;2782;52.362;10.012;2023-04-29T02:24:21;13.93;;;7.80;;
5519;SDS011;2782;52.362;10.012;2023-04-29T02:25:24;14.15;;;7.40;;
5519;SDS011;2782;52.362;10.012;2023-04-29T02:26:24;13.32;;;7.47;;
5519;SDS011;2782;52.362;10.012;2023-04-29T02:27:26;14.32;;;8.20;;
5519;SDS011;2782;52.362;10.012;2023-04-29T02:28:27;12.57;;;7.53;;
5519;SDS011;2782;52.362;10.012;2023-04-29T02:29:28;14.23;;;7.47;;
5519;SDS011;2782;52.362;10.012;2023-04-29T02:30:30;10.70;;;6.40;;
5519;SDS011;2782;52.362;10.012;2023-04-29T02:31:31;13.88;;;7.05;;
5519;SDS011;2782;52.362;10.012;2023-04-29T02:32:32;14.53;;;7.93;;
5519;SDS011;2782;52.362;10.012;2023-04-29T02:33:34;12.10;;;6.90;;
5519;SDS011;2782;52.362;10.012;2023-04-29T02:34:35;13.20;;;7.00;;
5519;SDS011;2782;52.362;10.012;2023-04-29T02:35:37;14.38;;;7.10;;
5519;SDS011;2782;52.362;10.012;2023-04-29T02:36:38;11.33;;;6.50;;
5519;SDS011;2782;52.362;10.012;2023-04-29T02:37:39;12.40;;;6.85;;
5519;SDS011;2782;52.362;10.012;2023-04-29T02:38:40;11.77;;;7.23;;
5519;SDS011;2782;52.362;10.012;2023-04-29T02:39:42;12.75;;;8.20;;
5519;SDS011;2782;52.362;10.012;2023-04-29T02:40:44;12.70;;;6.77;;
5519;SDS011;2782;52.362;10.012;2023-04-29T02:41:46;12.60;;;7.20;;
5519;SDS011;2782;52.362;10.012;2023-04-29T02:42:46;17.17;;;7.27;;
5519;SDS011;2782;52.362;10.012;2023-04-29T02:43:48;13.60;;;6.97;;
5519;SDS011;2782;52.362;10.012;2023-04-29T02:44:49;14.73;;;7.37;;
5519;SDS011;2782;52.362;10.012;2023-04-29T02:45:50;12.98;;;6.88;;
5519;SDS011;2782;52.362;10.012;2023-04-29T02:46:51;13.07;;;7.03;;
5519;SDS011;2782;52.362;10.012;2023-04-29T02:47:52;12.60;;;7.70;;
5519;SDS011;2782;52.362;10.012;2023-04-29T02:48:53;12.83;;;7.33;;
5519;SDS011;2782;52.362;10.012;2023-04-29T02:49:55;9.57;;;6.00;;
5519;SDS011;2782;52.362;10.012;2023-04-29T02:50:55;13.37;;;7.33;;
5519;SDS011;2782;52.362;10.012;2023-04-29T02:51:57;11.68;;;6.80;;
5519;SDS011;2782;52.362;10.012;2023-04-29T02:52:58;12.63;;;7.35;;
5519;SDS011;2782;52.362;10.012;2023-04-29T02:53:59;17.13;;;7.43;;
5519;SDS011;2782;52.362;10.012;2023-04-29T02:55:01;13.73;;;6.97;;
5519;SDS011;2782;52.362;10.012;2023-04-29T02:56:03;12.00;;;6.47;;
5519;SDS011;2782;52.362;10.012;2023-04-29T02:57:05;13.00;;;6.57;;
5519;SDS011;2782;52.362;10.012;2023-04-29T02:58:06;10.75;;;6.30;;
5519;SDS011;2782;52.362;10.012;2023-04-29T02:59:08;14.05;;;6.85;;
5519;SDS011;2782;52.362;10.012;2023-04-29T03:00:10;13.50;;;7.20;;
5519;SDS011;2782;52.362;10.012;2023-04-29T03:01:11;10.63;;;6.55;;
5519;SDS011;2782;52.362;10.012;2023-04-29T03:02:12;13.43;;;6.93;;
5519;SDS011;2782;52.362;10.012;2023-04-29T03:03:14;14.20;;;6.90;;
5519;SDS011;2782;52.362;10.012;2023-04-29T03:04:14;11.73;;;6.40;;
5519;SDS011;2782;52.362;10.012;2023-04-29T03:05:16;14.68;;;6.63;;
5519;SDS011;2782;52.362;10.012;2023-04-29T03:06:18;12.25;;;7.15;;
5519;SDS011;2782;52.362;10.012;2023-04-29T03:07:19;13.70;;;6.90;;
5519;SDS011;2782;52.362;10.012;2023-04-29T03:08:20;13.73;;;7.60;;
5519;SDS011;2782;52.362;10.012;2023-04-29T03:09:22;12.38;;;7.43;;
5519;SDS011;2782;52.362;10.012;2023-04-29T03:10:22;12.90;;;6.23;;
5519;SDS011;2782;52.362;10.012;2023-04-29T03:11:25;12.13;;;6.65;;
5519;SDS011;2782;52.362;10.012;2023-04-29T03:12:26;11.57;;;6.70;;
5519;SDS011;2782;52.362;10.012;2023-04-29T03:13:28;11.25;;;6.20;;
5519;SDS011;2782;52.362;10.012;2023-04-29T03:14:28;13.87;;;7.53;;
5519;SDS011;2782;52.362;10.012;2023-04-29T03:15:30;12.70;;;6.75;;
5519;SDS011;2782;52.362;10.012;2023-04-29T03:16:31;10.90;;;6.60;;
5519;SDS011;2782;52.362;10.012;2023-04-29T03:17:33;11.30;;;6.40;;
5519;SDS011;2782;52.362;10.012;2023-04-29T03:18:34;12.63;;;6.87;;
5519;SDS011;2782;52.362;10.012;2023-04-29T03:19:36;12.40;;;7.00;;
5519;SDS011;2782;52.362;10.012;2023-04-29T03:20:37;11.27;;;6.10;;
5519;SDS011;2782;52.362;10.012;2023-04-29T03:21:38;11.15;;;6.53;;
5519;SDS011;2782;52.362;10.012;2023-04-29T03:22:39;9.47;;;5.70;;
5519;SDS011;2782;52.362;10.012;2023-04-29T03:23:41;13.60;;;7.30;;
5519;SDS011;2782;52.362;10.012;2023-04-29T03:24:42;12.53;;;6.70;;
5519;SDS011;2782;52.362;10.012;2023-04-29T03:25:43;9.93;;;6.20;;
5519;SDS011;2782;52.362;10.012;2023-04-29T03:26:45;12.37;;;6.70;;
5519;SDS011;2782;52.362;10.012;2023-04-29T03:27:47;11.85;;;6.55;;
5519;SDS011;2782;52.362;10.012;2023-04-29T03:28:47;11.10;;;6.63;;
5519;SDS011;2782;52.362;10.012;2023-04-29T03:29:49;11.25;;;6.13;;
5519;SDS011;2782;52.362;10.012;2023-04-29T03:30:50;8.83;;;5.80;;
5519;SDS011;2782;52.362;10.012;2023-04-29T03:31:51;11.60;;;6.57;;
5519;SDS011;2782;52.362;10.012;2023-04-29T03:32:52;10.70;;;5.83;;
5519;SDS011;2782;52.362;10.012;2023-04-29T03:33:53;10.75;;;6.13;;
5519;SDS011;2782;52.362;10.012;2023-04-29T03:34:54;11.97;;;6.50;;
5519;SDS011;2782;52.362;10.012;2023-04-29T03:35:56;10.30;;;6.47;;
5519;SDS011;2782;52.362;10.012;2023-04-29T03:36:57;12.47;;;6.57;;
5519;SDS011;2782;52.362;10.012;2023-04-29T03:37:58;10.10;;;6.25;;
5519;SDS011;2782;52.362;10.012;2023-04-29T03:38:59;11.23;;;6.47;;
5519;SDS011;2782;52.362;10.012;2023-04-29T03:40:01;10.00;;;6.50;;
5519;SDS011;2782;52.362;10.012;2023-04-29T03:41:01;10.13;;;6.10;;
5519;SDS011;2782;52.362;10.012;2023-04-29T03:42:04;9.40;;;5.93;;
5519;SDS011;2782;52.362;10.012;2023-04-29T03:43:05;10.27;;;6.53;;
5519;SDS011;2782;52.362;10.012;2023-04-29T03:44:08;9.27;;;5.97;;
5519;SDS011;2782;52.362;10.012;2023-04-29T03:45:09;13.93;;;7.13;;
5519;SDS011;2782;52.362;10.012;2023-04-29T03:46:12;10.43;;;6.15;;
5519;SDS011;2782;52.362;10.012;2023-04-29T03:47:12;8.87;;;5.77;;
5519;SDS011;2782;52.362;10.012;2023-04-29T03:48:14;11.07;;;6.45;;
5519;SDS011;2782;52.362;10.012;2023-04-29T03:49:15;10.77;;;6.40;;
5519;SDS011;2782;52.362;10.012;2023-04-29T03:50:17;9.80;;;5.68;;
5519;SDS011;2782;52.362;10.012;2023-04-29T03:51:17;10.73;;;6.40;;
5519;SDS011;2782;52.362;10.012;2023-04-29T03:52:19;9.55;;;5.53;;
5519;SDS011;2782;52.362;10.012;2023-04-29T03:53:20;10.55;;;5.90;;
5519;SDS011;2782;52.362;10.012;2023-04-29T03:54:22;8.07;;;5.32;;
5519;SDS011;2782;52.362;10.012;2023-04-29T03:55:22;11.03;;;6.33;;
5519;SDS011;2782;52.362;10.012;2023-04-29T03:56:25;9.35;;;5.35;;
5519;SDS011;2782;52.362;10.012;2023-04-29T03:57:27;8.30;;;5.63;;
5519;SDS011;2782;52.362;10.012;2023-04-29T03:58:28;11.52;;;5.47;;
5519;SDS011;2782;52.362;10.012;2023-04-29T03:59:29;11.13;;;5.70;;
5519;SDS011;2782;52.362;10.012;2023-04-29T04:00:31;8.05;;;5.57;;
5519;SDS011;2782;52.362;10.012;2023-04-29T04:01:31;10.20;;;5.67;;
5519;SDS011;2782;52.362;10.012;2023-04-29T04:02:33;10.77;;;6.70;;
5519;SDS011;2782;52.362;10.012;2023-04-29T04:03:34;10.02;;;6.30;;
5519;SDS011;2782;52.362;10.012;2023-04-29T04:04:36;10.77;;;6.07;;
5519;SDS011;2782;52.362;10.012;2023-04-29T04:05:37;13.00;;;6.00;;
5519;SDS011;2782;52.362;10.012;2023-04-29T04:06:39;11.10;;;5.97;;
5519;SDS011;2782;52.362;10.012;2023-04-29T04:07:39;8.73;;;4.80;;
5519;SDS011;2782;52.362;10.012;2023-04-29T04:08:41;11.07;;;6.53;;
5519;SDS011;2782;52.362;10.012;2023-04-29T04:09:41;10.77;;;6.13;;
5519;SDS011;2782;52.362;10.012;2023-04-29T04:10:43;11.13;;;6.90;;
5519;SDS011;2782;52.362;10.012;2023-04-29T04:11:44;9.33;;;5.17;;
5519;SDS011;2782;52.362;10.012;2023-04-29T04:12:47;9.75;;;5.53;;
5519;SDS011;2782;52.362;10.012;2023-04-29T04:13:47;11.30;;;6.10;;
5519;SDS011;2782;52.362;10.012;2023-04-29T04:14:49;11.38;;;5.93;;
5519;SDS011;2782;52.362;10.012;2023-04-29T04:15:50;10.30;;;5.30;;
5519;SDS011;2782;52.362;10.012;2023-04-29T04:16:52;10.70;;;5.57;;
5519;SDS011;2782;52.362;10.012;2023-04-29T04:17:53;10.27;;;5.45;;
5519;SDS011;2782;52.362;10.012;2023-04-29T04:18:55;8.00;;;5.05;;
5519;SDS011;2782;52.362;10.012;2023-04-29T04:19:55;11.77;;;6.13;;
5519;SDS011;2782;52.362;10.012;2023-04-29T04:20:57;11.20;;;5.90;;
5519;SDS011;2782;52.362;10.012;2023-04-29T04:22:03;7.20;;;5.05;;
5519;SDS011;2782;52.362;10.012;2023-04-29T04:23:06;9.90;;;5.63;;
5519;SDS011;2782;52.362;10.012;2023-04-29T04:24:07;11.53;;;5.43;;
5519;SDS011;2782;52.362;10.012;2023-04-29T04:25:09;10.38;;;5.75;;
5519;SDS011;2782;52.362;10.012;2023-04-29T04:26:10;9.90;;;5.25;;
5519;SDS011;2782;52.362;10.012;2023-04-29T04:27:11;9.70;;;5.85;;
5519;SDS011;2782;52.362;10.012;2023-04-29T04:28:13;6.90;;;4.70;;
5519;SDS011;2782;52.362;10.012;2023-04-29T04:29:15;10.13;;;5.78;;
5519;SDS011;2782;52.362;10.012;2023-04-29T04:30:16;10.30;;;5.60;;
5519;SDS011;2782;52.362;10.012;2023-04-29T04:31:17;7.50;;;5.10;;
5519;SDS011;2782;52.362;10.012;2023-04-29T04:32:18;8.27;;;5.27;;
5519;SDS011;2782;52.362;10.012;2023-04-29T04:33:20;8.65;;;5.18;;
5519;SDS011;2782;52.362;10.012;2023-04-29T04:34:21;8.33;;;5.67;;
5519;SDS011;2782;52.362;10.012;2023-04-29T04:35:23;8.75;;;5.18;;
5519;SDS011;2782;52.362;10.012;2023-04-29T04:36:23;10.23;;;5.80;;
5519;SDS011;2782;52.362;10.012;2023-04-29T04:37:25;11.93;;;5.90;;
5519;SDS011;2782;52.362;10.012;2023-04-29T04:38:27;9.00;;;4.93;;
5519;SDS011;2782;52.362;10.012;2023-04-29T04:39:28;8.13;;;5.10;;
5519;SDS011;2782;52.362;10.012;2023-04-29T04:40:29;9.93;;;5.07;;
5519;SDS011;2782;52.362;10.012;2023-04-29T04:41:31;9.23;;;5.57;;
5519;SDS011;2782;52.362;10.012;2023-04-29T04:42:31;9.97;;;5.40;;
5519;SDS011;2782;52.362;10.012;2023-04-29T04:43:34;10.05;;;5.40;;
5519;SDS011;2782;52.362;10.012;2023-04-29T04:44:35;11.55;;;5.60;;
5519;SDS011;2782;52.362;10.012;2023-04-29T04:45:37;8.93;;;5.47;;
5519;SDS011;2782;52.362;10.012;2023-04-29T04:46:38;9.07;;;5.27;;
5519;SDS011;2782;52.362;10.012;2023-04-29T04:47:41;7.75;;;4.93;;
5519;SDS011;2782;52.362;10.012;2023-04-29T04:48:42;8.80;;;5.53;;
5519;SDS011;2782;52.362;10.012;2023-04-29T04:49:43;8.32;;;5.30;;
5519;SDS011;2782;52.362;10.012;2023-04-29T04:50:46;10.18;;;5.45;;
5519;SDS011;2782;52.362;10.012;2023-04-29T04:51:48;8.90;;;5.80;;
5519;SDS011;2782;52.362;10.012;2023-04-29T04:52:48;11.23;;;5.20;;
5519;SDS011;2782;52.362;10.012;2023-04-29T04:53:50;8.60;;;5.25;;
5519;SDS011;2782;52.362;10.012;2023-04-29T04:54:50;10.13;;;5.70;;
5519;SDS011;2782;52.362;10.012;2023-04-29T04:55:52;8.35;;;5.65;;
5519;SDS011;2782;52.362;10.012;2023-04-29T04:56:53;9.00;;;5.50;;
5519;SDS011;2782;52.362;10.012;2023-04-29T04:57:54;7.15;;;4.53;;
5519;SDS011;2782;52.362;10.012;2023-04-29T04:58:56;8.70;;;5.00;;
5519;SDS011;2782;52.362;10.012;2023-04-29T04:59:58;7.47;;;5.10;;
5519;SDS011;2782;52.362;10.012;2023-04-29T05:00:58;8.07;;;4.80;;
5519;SDS011;2782;52.362;10.012;2023-04-29T05:02:00;8.23;;;4.80;;
5519;SDS011;2782;52.362;10.012;2023-04-29T05:03:01;8.80;;;4.50;;
5519;SDS011;2782;52.362;10.012;2023-04-29T05:04:03;7.47;;;4.68;;
5519;SDS011;2782;52.362;10.012;2023-04-29T05:05:04;8.50;;;5.83;;
5519;SDS011;2782;52.362;10.012;2023-04-29T05:06:05;7.18;;;4.97;;
5519;SDS011;2782;52.362;10.012;2023-04-29T05:07:06;8.43;;;4.73;;
5519;SDS011;2782;52.362;10.012;2023-04-29T05:08:08;7.97;;;4.20;;
5519;SDS011;2782;52.362;10.012;2023-04-29T05:09:08;8.60;;;5.37;;
5519;SDS011;2782;52.362;10.012;2023-04-29T05:10:10;8.18;;;4.68;;
5519;SDS011;2782;52.362;10.012;2023-04-29T05:11:14;8.17;;;4.80;;
5519;SDS011;2782;52.362;10.012;2023-04-29T05:12:17;9.00;;;5.00;;
5519;SDS011;2782;52.362;10.012;2023-04-29T05:13:18;9.23;;;5.50;;
5519;SDS011;2782;52.362;10.012;2023-04-29T05:14:21;8.05;;;5.07;;
5519;SDS011;2782;52.362;10.012;2023-04-29T05:15:21;8.75;;;5.40;;
5519;SDS011;2782;52.362;10.012;2023-04-29T05:16:24;7.85;;;4.80;;
5519;SDS011;2782;52.362;10.012;2023-04-29T05:17:25;8.90;;;5.17;;
5519;SDS011;2782;52.362;10.012;2023-04-29T05:18:26;8.30;;;4.35;;
5519;SDS011;2782;52.362;10.012;2023-04-29T05:19:27;6.33;;;4.20;;
5519;SDS011;2782;52.362;10.012;2023-04-29T05:20:29;9.07;;;4.95;;
5519;SDS011;2782;52.362;10.012;2023-04-29T05:21:29;9.33;;;4.90;;
5519;SDS011;2782;52.362;10.012;2023-04-29T05:22:31;9.38;;;5.13;;
5519;SDS011;2782;52.362;10.012;2023-04-29T05:23:32;7.43;;;4.30;;
5519;SDS011;2782;52.362;10.012;2023-04-29T05:24:35;8.07;;;5.30;;
5519;SDS011;2782;52.362;10.012;2023-04-29T05:25:35;5.40;;;3.90;;
5519;SDS011;2782;52.362;10.012;2023-04-29T05:26:37;8.25;;;4.78;;
5519;SDS011;2782;52.362;10.012;2023-04-29T05:27:37;10.97;;;5.13;;
5519;SDS011;2782;52.362;10.012;2023-04-29T05:28:39;7.13;;;4.35;;
5519;SDS011;2782;52.362;10.012;2023-04-29T05:29:41;7.80;;;4.77;;
5519;SDS011;2782;52.362;10.012;2023-04-29T05:30:43;8.82;;;4.75;;
5519;SDS011;2782;52.362;10.012;2023-04-29T05:31:44;7.27;;;4.37;;
5519;SDS011;2782;52.362;10.012;2023-04-29T05:32:46;10.02;;;4.70;;
5519;SDS011;2782;52.362;10.012;2023-04-29T05:33:47;8.55;;;4.30;;
5519;SDS011;2782;52.362;10.012;2023-04-29T05:34:49;7.45;;;4.57;;
5519;SDS011;2782;52.362;10.012;2023-04-29T05:35:50;8.90;;;4.80;;
5519;SDS011;2782;52.362;10.012;2023-04-29T05:36:51;6.70;;;4.55;;
5519;SDS011;2782;52.362;10.012;2023-04-29T05:37:52;7.00;;;4.50;;
5519;SDS011;2782;52.362;10.012;2023-04-29T05:38:53;7.35;;;3.92;;
5519;SDS011;2782;52.362;10.012;2023-04-29T05:39:54;7.10;;;4.50;;
5519;SDS011;2782;52.362;10.012;2023-04-29T05:40:56;6.75;;;4.63;;
5519;SDS011;2782;52.362;10.012;2023-04-29T05:41:56;6.40;;;3.90;;
5519;SDS011;2782;52.362;10.012;2023-04-29T05:42:58;5.93;;;3.85;;
5519;SDS011;2782;52.362;10.012;2023-04-29T05:43:58;8.33;;;4.27;;
5519;SDS011;2782;52.362;10.012;2023-04-29T05:45:01;6.50;;;4.70;;
5519;SDS011;2782;52.362;10.012;2023-04-29T05:46:02;5.28;;;4.20;;
5519;SDS011;2782;52.362;10.012;2023-04-29T05:47:05;7.90;;;4.40;;
5519;SDS011;2782;52.362;10.012;2023-04-29T05:48:05;6.40;;;4.17;;
5519;SDS011;2782;52.362;10.012;2023-04-29T05:49:07;8.05;;;4.68;;
5519;SDS011;2782;52.362;10.012;2023-04-29T05:50:08;6.17;;;3.70;;
5519;SDS011;2782;52.362;10.012;2023-04-29T05:51:11;10.27;;;4.43;;
5519;SDS011;2782;52.362;10.012;2023-04-29T05:52:12;7.25;;;4.63;;
5519;SDS011;2782;52.362;10.012;2023-04-29T05:53:14;7.10;;;4.28;;
5519;SDS011;2782;52.362;10.012;2023-04-29T05:54:14;6.20;;;4.40;;
5519;SDS011;2782;52.362;10.012;2023-04-29T05:55:16;6.95;;;4.38;;
5519;SDS011;2782;52.362;10.012;2023-04-29T05:56:17;7.87;;;4.70;;
5519;SDS011;2782;52.362;10.012;2023-04-29T05:57:19;6.70;;;4.55;;
5519;SDS011;2782;52.362;10.012;2023-04-29T05:58:19;6.80;;;4.60;;
5519;SDS011;2782;52.362;10.012;2023-04-29T05:59:21;7.68;;;6.00;;
5519;SDS011;2782;52.362;10.012;2023-04-29T06:00:23;10.60;;;5.97;;
5519;SDS011;2782;52.362;10.012;2023-04-29T06:01:25;10.70;;;6.25;;
5519;SDS011;2782;52.362;10.012;2023-04-29T06:02:26;23.33;;;8.33;;
5519;SDS011;2782;52.362;10.012;2023-04-29T06:03:28;12.32;;;8.38;;
5519;SDS011;2782;52.362;10.012;2023-04-29T06:04:30;17.63;;;10.20;;
5519;SDS011;2782;52.362;10.012;2023-04-29T06:05:30;16.37;;;9.13;;
5519;SDS011;2782;52.362;10.012;2023-04-29T06:06:33;10.55;;;6.80;;
5519;SDS011;2782;52.362;10.012;2023-04-29T06:07:33;10.40;;;6.80;;
5519;SDS011;2782;52.362;10.012;2023-04-29T06:08:35;16.88;;;7.65;;
5519;SDS011;2782;52.362;10.012;2023-04-29T06:09:36;11.40;;;7.00;;
5519;SDS011;2782;52.362;10.012;2023-04-29T06:10:38;14.20;;;6.80;;
5519;SDS011;2782;52.362;10.012;2023-04-29T06:11:38;16.97;;;7.10;;
5519;SDS011;2782;52.362;10.012;2023-04-29T06:12:40;11.95;;;6.55;;
5519;SDS011;2782;52.362;10.012;2023-04-29T06:13:41;16.15;;;6.63;;
5519;SDS011;2782;52.362;10.012;2023-04-29T06:14:44;16.25;;;7.32;;